Station Historical Data
Daily Summary for January 1, 2017 Units:  Metric    English   Both
« Previous Day
Next Day »
Daily Weekly Monthly Yearly Custom
  High: Low: Average:
Temperature: 2.7 °C 0.8 °C 2.1 °C
Dew Point: 2.5 °C -0.1 °C 1.3 °C
Humidity: 100 % 93 % 94 %
Wind Speed: 30.6 km/h 0 km/h 9.8 km/h
Wind Gust: 41.8 km/h - -
Wind:- - South
Pressure: 1015.8 hPa 1012.8 hPa -
Precipitation: 1.78 mm    
Historical Graphs
 
 
Tabular Data for January 1, 2017
Time Temperature Dew Point Pressure Wind Wind Speed Wind Gust Humidity Rainfall Rate (Hourly) solar
00:02 2.3 °C 1.4 °C 1015.1 hPa Calm     94 % 0 mm 0.00 W/m2
00:07 2.4 °C 1.5 °C 1015.1 hPa East 3.2 km/h 3.2 km/h 94 % 0 mm 0.00 W/m2
00:12 2.4 °C 1.5 °C 1015.1 hPa Calm   9.7 km/h 94 % 0 mm 0.00 W/m2
00:17 2.4 °C 1.6 °C 1014.8 hPa Calm   6.4 km/h 94 % 0 mm 0.00 W/m2
00:22 2.4 °C 1.6 °C 1014.8 hPa ESE 1.6 km/h 9.7 km/h 94 % 0 mm 0.00 W/m2
00:27 2.4 °C 1.6 °C 1015.1 hPa Calm     94 % 0 mm 0.00 W/m2
00:32 2.4 °C 1.6 °C 1015.1 hPa Calm     94 % 0 mm 0.00 W/m2
00:37 2.5 °C 1.6 °C 1015.1 hPa Calm     94 % 0 mm 0.00 W/m2
00:42 2.5 °C 1.6 °C 1015.1 hPa Calm     94 % 0 mm 0.00 W/m2
00:47 2.4 °C 1.6 °C 1015.1 hPa Calm     94 % 0 mm 0.00 W/m2
00:52 2.4 °C 1.6 °C 1015.1 hPa Calm     94 % 0 mm 0.00 W/m2
00:57 2.4 °C 1.5 °C 1015.1 hPa ESE 6.4 km/h 11.3 km/h 94 % 0 mm 0.00 W/m2
01:02 2.3 °C 1.4 °C 1014.8 hPa SE 12.9 km/h 14.5 km/h 94 % 0 mm 0.00 W/m2
01:07 2.2 °C 1.3 °C 1014.8 hPa SE 3.2 km/h 11.3 km/h 94 % 0 mm 0.00 W/m2
01:12 2.1 °C 1.2 °C 1014.4 hPa Calm   17.7 km/h 94 % 0 mm 0.00 W/m2
01:13 2.1 °C 1.2 °C 1014.4 hPa SE 14.5 km/h 19.3 km/h 94 % 0 mm 0.00 W/m2
01:18 2.1 °C 1.2 °C 1014.4 hPa SE 9.7 km/h 12.9 km/h 94 % 0 mm 0.00 W/m2
01:23 2.1 °C 1.2 °C 1014.4 hPa Calm   17.7 km/h 94 % 0 mm 0.00 W/m2
01:28 2.1 °C 1.2 °C 1014.4 hPa ESE 12.9 km/h 14.5 km/h 94 % 0 mm 0.00 W/m2
01:33 2.1 °C 1.2 °C 1014.4 hPa ESE 8 km/h 19.3 km/h 94 % 0 mm 0.00 W/m2
01:38 2.1 °C 1.2 °C 1014.1 hPa Calm   19.3 km/h 94 % 0 mm 0.00 W/m2
01:43 2.1 °C 1.2 °C 1014.4 hPa SE 1.6 km/h 20.9 km/h 94 % 0 mm 0.00 W/m2
01:48 2 °C 1.1 °C 1014.4 hPa ESE 9.7 km/h 20.9 km/h 94 % 0 mm 0.00 W/m2
01:53 2.1 °C 1.2 °C 1014.4 hPa ESE 17.7 km/h 19.3 km/h 94 % 0 mm 0.00 W/m2
01:58 2.1 °C 1.2 °C 1014.4 hPa ESE 14.5 km/h 25.7 km/h 94 % 0 mm 0.00 W/m2
02:03 2.1 °C 1.2 °C 1014.8 hPa Calm   17.7 km/h 94 % 0 mm 0.00 W/m2
02:08 2.1 °C 1.2 °C 1014.8 hPa Calm   12.9 km/h 94 % 0 mm 0.00 W/m2
02:13 2.1 °C 1.2 °C 1015.1 hPa Calm     94 % 0 mm 0.00 W/m2
02:19 1.9 °C 1.1 °C 1015.1 hPa Calm     94 % 0 mm 0.00 W/m2
02:24 1.9 °C 1 °C 1015.1 hPa Calm     94 % 0 mm 0.00 W/m2
02:29 1.9 °C 1 °C 1015.1 hPa Calm     94 % 0 mm 0.00 W/m2
02:34 1.9 °C 1 °C 1015.5 hPa Calm     94 % 0 mm 0.00 W/m2
02:39 1.8 °C 1 °C 1015.5 hPa Calm     94 % 0 mm 0.00 W/m2
02:44 1.8 °C 0.9 °C 1015.8 hPa Calm     94 % 0 mm 0.00 W/m2
02:49 1.7 °C 0.7 °C 1015.8 hPa Calm     93 % 0 mm 0.00 W/m2
02:54 1.6 °C 0.6 °C 1015.8 hPa SE 9.7 km/h 9.7 km/h 93 % 0 mm 0.00 W/m2
02:59 1.4 °C 0.4 °C 1015.5 hPa SE 6.4 km/h 12.9 km/h 93 % 0 mm 0.00 W/m2
03:04 1.4 °C 0.4 °C 1015.5 hPa SE 11.3 km/h 11.3 km/h 93 % 0 mm 0.00 W/m2
03:09 1.3 °C 0.3 °C 1015.8 hPa Calm   6.4 km/h 93 % 0 mm 0.00 W/m2
03:14 1.3 °C 0.3 °C 1015.8 hPa Calm     93 % 0 mm 0.00 W/m2
03:19 1.3 °C 0.3 °C 1015.8 hPa Calm     93 % 0 mm 0.00 W/m2
03:24 1.3 °C 0.3 °C 1015.8 hPa SSE 8 km/h 11.3 km/h 93 % 0 mm 0.00 W/m2
03:29 1.3 °C 0.5 °C 1015.8 hPa Calm   12.9 km/h 94 % 0 mm 0.00 W/m2
03:34 1.3 °C 0.5 °C 1015.8 hPa SSE 6.4 km/h 12.9 km/h 94 % 0 mm 0.00 W/m2
03:39 1.4 °C 0.6 °C 1015.8 hPa SSE 12.9 km/h 12.9 km/h 94 % 0 mm 0.00 W/m2
03:44 1.6 °C 0.7 °C 1015.8 hPa SSE 6.4 km/h 9.7 km/h 94 % 0 mm 0.00 W/m2
03:49 1.7 °C 0.8 °C 1015.8 hPa SSE 6.4 km/h 11.3 km/h 94 % 0 mm 0.00 W/m2
03:54 1.8 °C 0.9 °C 1015.5 hPa Calm   12.9 km/h 94 % 0 mm 0.00 W/m2
03:59 1.9 °C 1 °C 1015.1 hPa Calm   16.1 km/h 94 % 0 mm 0.00 W/m2
04:04 2 °C 1.1 °C 1015.1 hPa SSE 6.4 km/h 16.1 km/h 94 % 0 mm 0.00 W/m2
04:09 2.2 °C 1.3 °C 1015.1 hPa Calm   17.7 km/h 94 % 0 mm 0.00 W/m2
04:14 2.2 °C 1.3 °C 1015.1 hPa Calm   17.7 km/h 94 % 0 mm 0.00 W/m2
04:19 2.3 °C 1.4 °C 1014.8 hPa SSE 8 km/h 16.1 km/h 94 % 0 mm 0.00 W/m2
04:24 2.3 °C 1.4 °C 1015.1 hPa SSE 9.7 km/h 17.7 km/h 94 % 0 mm 0.00 W/m2
04:29 2.3 °C 1.4 °C 1015.1 hPa SSE 1.6 km/h 16.1 km/h 94 % 0 mm 0.00 W/m2
04:34 2.4 °C 1.5 °C 1014.8 hPa Calm   17.7 km/h 94 % 0 mm 0.00 W/m2
04:39 2.4 °C 1.6 °C 1014.8 hPa SSE 14.5 km/h 20.9 km/h 94 % 0 mm 0.00 W/m2
04:44 2.4 °C 1.6 °C 1014.8 hPa SSE 9.7 km/h 16.1 km/h 94 % 0 mm 0.00 W/m2
04:49 2.5 °C 1.6 °C 1014.8 hPa SSE 11.3 km/h 17.7 km/h 94 % 0 mm 0.00 W/m2
04:54 2.5 °C 1.6 °C 1014.8 hPa SSE 14.5 km/h 19.3 km/h 94 % 0 mm 0.00 W/m2
04:59 2.6 °C 1.7 °C 1014.4 hPa SSE 9.7 km/h 22.5 km/h 94 % 0 mm 0.00 W/m2
05:04 2.6 °C 1.7 °C 1014.1 hPa SSE 12.9 km/h 19.3 km/h 94 % 0 mm 0.00 W/m2
05:09 2.6 °C 1.7 °C 1014.1 hPa SSE 8 km/h 17.7 km/h 94 % 0 mm 0.00 W/m2
05:14 2.6 °C 1.7 °C 1014.1 hPa SSE 9.7 km/h 20.9 km/h 94 % 0 mm 0.00 W/m2
05:19 2.6 °C 1.7 °C 1013.8 hPa SSE 24.1 km/h 24.1 km/h 94 % 0 mm 0.00 W/m2
05:24 2.6 °C 1.7 °C 1013.8 hPa SSE 12.9 km/h 20.9 km/h 94 % 0 mm 0.00 W/m2
05:29 2.6 °C 1.7 °C 1014.1 hPa South 9.7 km/h 20.9 km/h 94 % 0 mm 0.00 W/m2
05:34 2.6 °C 1.7 °C 1014.1 hPa SSE 11.3 km/h 20.9 km/h 94 % 0 mm 0.00 W/m2
05:39 2.5 °C 1.6 °C 1014.4 hPa SSE 9.7 km/h 17.7 km/h 94 % 0 mm 0.00 W/m2
05:44 2.5 °C 1.6 °C 1014.4 hPa SSE 8 km/h 17.7 km/h 94 % 0 mm 0.00 W/m2
05:49 2.5 °C 1.6 °C 1014.1 hPa SSE 6.4 km/h 16.1 km/h 94 % 0 mm 0.00 W/m2
05:54 2.5 °C 1.6 °C 1014.4 hPa SSE 11.3 km/h 16.1 km/h 94 % 0 mm 0.00 W/m2
05:59 2.5 °C 1.6 °C 1014.1 hPa SSE 14.5 km/h 17.7 km/h 94 % 0 mm 0.00 W/m2
06:05 2.4 °C 1.6 °C 1014.1 hPa SSE 9.7 km/h 16.1 km/h 94 % 0 mm 0.00 W/m2
06:10 2.4 °C 1.6 °C 1014.1 hPa SSE 11.3 km/h 12.9 km/h 94 % 0 mm 0.00 W/m2
06:15 2.4 °C 1.6 °C 1014.1 hPa SSE 9.7 km/h 16.1 km/h 94 % 0 mm 0.00 W/m2
06:20 2.4 °C 1.6 °C 1014.1 hPa Calm   1.6 km/h 94 % 0 mm 0.00 W/m2
06:25 2.4 °C 1.6 °C 1014.4 hPa Calm     94 % 0 mm 0.00 W/m2
06:30 2.4 °C 1.6 °C 1014.4 hPa Calm     94 % 0 mm 0.00 W/m2
06:35 2.4 °C 1.5 °C 1014.8 hPa Calm     94 % 0 mm 0.00 W/m2
06:40 2.4 °C 1.5 °C 1014.8 hPa Calm     94 % 0 mm 0.00 W/m2
06:45 2.4 °C 1.5 °C 1014.8 hPa Calm     94 % 0 mm 0.00 W/m2
06:50 2.4 °C 1.5 °C 1014.8 hPa Calm     94 % 0 mm 0.00 W/m2
06:55 2.4 °C 1.6 °C 1014.8 hPa Calm     94 % 0 mm 0.00 W/m2
07:00 2.4 °C 1.6 °C 1014.8 hPa Calm     94 % 0 mm 0.00 W/m2
07:05 2.4 °C 1.6 °C 1014.8 hPa Calm     94 % 0 mm 0.00 W/m2
07:10 2.4 °C 1.6 °C 1015.1 hPa Calm     94 % 0 mm 0.00 W/m2
07:15 2.5 °C 1.6 °C 1015.1 hPa Calm     94 % 0 mm 0.00 W/m2
07:20 2.6 °C 1.7 °C 1014.8 hPa Calm     94 % 0 mm 0.00 W/m2
07:25 2.6 °C 1.7 °C 1014.8 hPa Calm     94 % 0 mm 0.00 W/m2
07:30 2.6 °C 1.7 °C 1014.8 hPa Calm     94 % 0 mm 0.00 W/m2
07:35 2.6 °C 1.7 °C 1014.8 hPa Calm     94 % 0 mm 0.00 W/m2
07:40 2.6 °C 1.7 °C 1015.1 hPa Calm     94 % 0 mm 0.00 W/m2
07:45 2.6 °C 1.7 °C 1014.8 hPa Calm     94 % 0 mm 0.00 W/m2
07:50 2.6 °C 1.7 °C 1014.8 hPa Calm     94 % 0 mm 5.00 W/m2
07:55 2.5 °C 1.6 °C 1014.8 hPa Calm     94 % 0 mm 5.00 W/m2
08:00 2.5 °C 1.6 °C 1014.8 hPa Calm     94 % 0 mm 7.00 W/m2
08:05 2.4 °C 1.6 °C 1014.8 hPa Calm     94 % 0 mm 7.00 W/m2
08:10 2.4 °C 1.6 °C 1014.8 hPa Calm     94 % 0 mm 7.00 W/m2
08:15 2.4 °C 1.6 °C 1014.8 hPa Calm     94 % 0 mm 7.00 W/m2
08:20 2.4 °C 1.5 °C 1014.8 hPa Calm     94 % 0 mm 9.00 W/m2
08:25 2.3 °C 1.4 °C 1014.8 hPa Calm     94 % 0 mm 9.00 W/m2
08:30 2.3 °C 1.4 °C 1014.8 hPa South 14.5 km/h 25.7 km/h 94 % 0 mm 11.00 W/m2
08:35 2.3 °C 1.4 °C 1014.8 hPa SSE 6.4 km/h 24.1 km/h 94 % 0 mm 11.00 W/m2
08:40 2.2 °C 1.3 °C 1014.8 hPa South 9.7 km/h 22.5 km/h 94 % 0 mm 11.00 W/m2
08:45 2.2 °C 1.3 °C 1014.8 hPa SE 12.9 km/h 27.4 km/h 94 % 0 mm 12.00 W/m2
08:50 2.2 °C 1.3 °C 1014.8 hPa South 11.3 km/h 19.3 km/h 94 % 0 mm 14.00 W/m2
08:55 2.2 °C 1.3 °C 1015.1 hPa South 12.9 km/h 20.9 km/h 94 % 0 mm 14.00 W/m2
09:00 2.2 °C 1.3 °C 1015.1 hPa SSE 8 km/h 16.1 km/h 94 % 0 mm 14.00 W/m2
09:05 2.2 °C 1.3 °C 1015.1 hPa Calm   16.1 km/h 94 % 0 mm 14.00 W/m2
09:10 2.2 °C 1.3 °C 1015.1 hPa SSE 12.9 km/h 16.1 km/h 94 % 0 mm 18.00 W/m2
09:15 2.2 °C 1.3 °C 1015.1 hPa SE 8 km/h 24.1 km/h 94 % 0 mm 18.00 W/m2
09:20 2.2 °C 1.3 °C 1015.1 hPa SSE 16.1 km/h 25.7 km/h 94 % 0 mm 19.00 W/m2
09:25 2.2 °C 1.3 °C 1015.1 hPa SSE 16.1 km/h 30.6 km/h 94 % 0 mm 18.00 W/m2
09:30 2.2 °C 1.3 °C 1015.1 hPa South 9.7 km/h 17.7 km/h 94 % 0 mm 18.00 W/m2
09:35 2.2 °C 1.3 °C 1015.5 hPa SSE 17.7 km/h 20.9 km/h 94 % 0 mm 19.00 W/m2
09:36 2.2 °C 1.3 °C 1015.1 hPa SSE 12.9 km/h 20.9 km/h 94 % 0 mm 18.00 W/m2
09:41 2.2 °C 1.3 °C 1015.1 hPa SSE 12.9 km/h 24.1 km/h 94 % 0 mm 18.00 W/m2
09:46 2.2 °C 1.3 °C 1015.1 hPa South 6.4 km/h 22.5 km/h 94 % 0 mm 19.00 W/m2
09:51 2.2 °C 1.3 °C 1015.1 hPa SSE 17.7 km/h 22.5 km/h 94 % 0 mm 23.00 W/m2
09:56 2.2 °C 1.3 °C 1015.5 hPa South 9.7 km/h 19.3 km/h 94 % 0 mm 21.00 W/m2
10:01 2.2 °C 1.3 °C 1015.5 hPa South 12.9 km/h 19.3 km/h 94 % 0 mm 21.00 W/m2
10:06 2.2 °C 1.3 °C 1015.5 hPa Calm   14.5 km/h 94 % 0 mm 21.00 W/m2
10:11 2.2 °C 1.3 °C 1015.5 hPa South 20.9 km/h 24.1 km/h 94 % 0 mm 23.00 W/m2
10:16 2.2 °C 1.3 °C 1015.5 hPa SSE 11.3 km/h 20.9 km/h 94 % 0 mm 25.00 W/m2
10:21 2.2 °C 1.3 °C 1015.8 hPa SSE 16.1 km/h 17.7 km/h 94 % 0 mm 26.00 W/m2
10:26 2.2 °C 1.4 °C 1015.5 hPa SSE 9.7 km/h 16.1 km/h 95 % 0 mm 25.00 W/m2
10:31 2.2 °C 1.4 °C 1015.5 hPa SSE 12.9 km/h 22.5 km/h 95 % 0 mm 19.00 W/m2
10:36 2.2 °C 1.4 °C 1015.5 hPa SSE 6.4 km/h 17.7 km/h 95 % 0 mm 19.00 W/m2
10:41 2.2 °C 1.4 °C 1015.1 hPa SSE 3.2 km/h 17.7 km/h 95 % 0 mm 23.00 W/m2
10:46 2.2 °C 1.5 °C 1015.1 hPa South 12.9 km/h 20.9 km/h 95 % 0 mm 28.00 W/m2
10:51 2.2 °C 1.4 °C 1015.5 hPa South 14.5 km/h 22.5 km/h 95 % 0 mm 26.00 W/m2
10:56 2.2 °C 1.4 °C 1015.5 hPa South 12.9 km/h 22.5 km/h 95 % 0 mm 30.00 W/m2
11:01 2.2 °C 1.4 °C 1015.1 hPa SSE 9.7 km/h 22.5 km/h 95 % 0 mm 33.00 W/m2
11:06 2.2 °C 1.5 °C 1015.1 hPa South 9.7 km/h 22.5 km/h 95 % 17.02 mm 37.00 W/m2
11:11 2.2 °C 1.5 °C 1015.1 hPa South 1.6 km/h 16.1 km/h 95 % 2.54 mm 35.00 W/m2
11:16 2.2 °C 1.5 °C 1015.1 hPa South 12.9 km/h 17.7 km/h 95 % 1.27 mm 33.00 W/m2
11:21 2.2 °C 1.5 °C 1014.8 hPa South 17.7 km/h 22.5 km/h 95 % 1.02 mm 30.00 W/m2
11:26 2.2 °C 1.5 °C 1014.8 hPa South 3.2 km/h 19.3 km/h 95 % 0 mm 30.00 W/m2
11:31 2.2 °C 1.5 °C 1014.8 hPa SSW 4.8 km/h 17.7 km/h 95 % 0 mm 21.00 W/m2
11:36 2.2 °C 1.5 °C 1015.1 hPa SSW 4.8 km/h 17.7 km/h 95 % 0 mm 19.00 W/m2
11:41 2.2 °C 1.5 °C 1015.1 hPa South 12.9 km/h 25.7 km/h 95 % 0 mm 25.00 W/m2
11:46 2.2 °C 1.5 °C 1014.8 hPa SSW 11.3 km/h 24.1 km/h 95 % 0 mm 18.00 W/m2
11:51 2.2 °C 1.5 °C 1014.8 hPa SSW 11.3 km/h 25.7 km/h 95 % 0 mm 33.00 W/m2
11:56 2.2 °C 1.4 °C 1014.8 hPa SSE 14.5 km/h 20.9 km/h 95 % 0 mm 35.00 W/m2
12:01 2.2 °C 1.4 °C 1014.4 hPa South 17.7 km/h 25.7 km/h 95 % 0 mm 35.00 W/m2
12:06 2.2 °C 1.5 °C 1014.8 hPa South 4.8 km/h 19.3 km/h 95 % 0 mm 26.00 W/m2
12:11 2.2 °C 1.4 °C 1014.4 hPa South 8 km/h 20.9 km/h 95 % 0 mm 26.00 W/m2
12:16 2.2 °C 1.5 °C 1014.1 hPa South 11.3 km/h 16.1 km/h 95 % 0 mm 65.00 W/m2
12:17 2.2 °C 1.5 °C 1014.1 hPa South 4.8 km/h 19.3 km/h 95 % 0 mm 63.00 W/m2
12:22 2.2 °C 1.5 °C 1014.1 hPa South 3.2 km/h 17.7 km/h 95 % 0 mm 60.00 W/m2
12:27 2.2 °C 1.5 °C 1014.1 hPa SSE 9.7 km/h 22.5 km/h 95 % 0 mm 54.00 W/m2
12:32 2.3 °C 1.6 °C 1014.1 hPa SSE 14.5 km/h 24.1 km/h 95 % 0 mm 56.00 W/m2
12:37 2.3 °C 1.6 °C 1013.8 hPa SSE 11.3 km/h 20.9 km/h 95 % 0 mm 58.00 W/m2
12:42 2.3 °C 1.6 °C 1013.8 hPa South 6.4 km/h 24.1 km/h 95 % 0 mm 35.00 W/m2
12:47 2.3 °C 1.6 °C 1013.8 hPa SSE 24.1 km/h 30.6 km/h 95 % 0 mm 30.00 W/m2
12:52 2.3 °C 1.6 °C 1013.8 hPa South 19.3 km/h 20.9 km/h 95 % 0 mm 33.00 W/m2
12:57 2.3 °C 1.6 °C 1013.8 hPa South 11.3 km/h 24.1 km/h 95 % 0 mm 37.00 W/m2
13:02 2.3 °C 1.6 °C 1013.8 hPa SSE 14.5 km/h 20.9 km/h 95 % 0 mm 37.00 W/m2
13:07 2.3 °C 1.6 °C 1013.8 hPa South 12.9 km/h 12.9 km/h 95 % 0 mm 25.00 W/m2
13:12 2.3 °C 1.6 °C 1013.8 hPa South 11.3 km/h 17.7 km/h 95 % 0 mm 49.00 W/m2
13:17 2.3 °C 1.6 °C 1013.8 hPa South 8 km/h 24.1 km/h 95 % 0 mm 60.00 W/m2
13:22 2.4 °C 1.7 °C 1013.8 hPa SSE 11.3 km/h 16.1 km/h 95 % 0 mm 93.00 W/m2
13:27 2.4 °C 1.7 °C 1013.8 hPa South 8 km/h 17.7 km/h 95 % 0 mm 88.00 W/m2
13:32 2.4 °C 1.7 °C 1013.8 hPa South 12.9 km/h 27.4 km/h 95 % 0 mm 116.00 W/m2
13:38 2.4 °C 1.7 °C 1013.8 hPa South 24.1 km/h 29 km/h 95 % 0 mm 69.00 W/m2
13:43 2.5 °C 1.8 °C 1013.4 hPa South 12.9 km/h 19.3 km/h 95 % 0 mm 63.00 W/m2
13:48 2.5 °C 2.5 °C 1013.4 hPa SSE 22.5 km/h 22.5 km/h 100 % 0 mm 83.00 W/m2
13:53 2.5 °C 1.8 °C 1013.4 hPa South 12.9 km/h 22.5 km/h 95 % 0 mm 165.00 W/m2
13:58 2.6 °C 1.8 °C 1013.4 hPa South 14.5 km/h 17.7 km/h 95 % 0 mm 135.00 W/m2
14:03 2.6 °C 1.9 °C 1013.4 hPa South 14.5 km/h 17.7 km/h 95 % 0 mm 62.00 W/m2
14:08 2.6 °C 1.9 °C 1013.4 hPa Calm     95 % 0 mm 88.00 W/m2
14:13 2.6 °C 1.9 °C 1013.4 hPa South 14.5 km/h 22.5 km/h 95 % 0 mm 32.00 W/m2
14:18 2.7 °C 1.9 °C 1013.1 hPa SSE 8 km/h 25.7 km/h 95 % 0 mm 70.00 W/m2
14:23 2.7 °C 1.9 °C 1013.1 hPa South 17.7 km/h 19.3 km/h 95 % 0 mm 44.00 W/m2
14:28 2.6 °C 1.9 °C 1013.1 hPa SSE 19.3 km/h 20.9 km/h 95 % 0 mm 69.00 W/m2
14:33 2.6 °C 1.9 °C 1013.1 hPa SSE 19.3 km/h 22.5 km/h 95 % 0 mm 25.00 W/m2
14:38 2.6 °C 1.9 °C 1013.1 hPa South 11.3 km/h 19.3 km/h 95 % 0 mm 28.00 W/m2
14:43 2.6 °C 1.8 °C 1013.1 hPa South 14.5 km/h 19.3 km/h 95 % 0 mm 21.00 W/m2
14:48 2.6 °C 1.8 °C 1013.1 hPa SSW 4.8 km/h 24.1 km/h 95 % 0 mm 32.00 W/m2
14:53 2.6 °C 1.8 °C 1013.1 hPa South 12.9 km/h 25.7 km/h 95 % 0 mm 46.00 W/m2
14:58 2.5 °C 1.8 °C 1013.1 hPa South 16.1 km/h 17.7 km/h 95 % 0 mm 28.00 W/m2
15:03 2.5 °C 1.8 °C 1013.1 hPa SSW 16.1 km/h 19.3 km/h 95 % 0 mm 47.00 W/m2
15:08 2.5 °C 1.8 °C 1013.1 hPa South 1.6 km/h 22.5 km/h 95 % 0 mm 28.00 W/m2
15:13 2.4 °C 1.7 °C 1013.1 hPa South 1.6 km/h 24.1 km/h 95 % 0 mm 30.00 W/m2
15:18 2.4 °C 1.7 °C 1013.1 hPa South 24.1 km/h 27.4 km/h 95 % 0 mm 40.00 W/m2
15:23 2.4 °C 1.7 °C 1013.1 hPa South 22.5 km/h 25.7 km/h 95 % 0 mm 30.00 W/m2
15:28 2.4 °C 1.7 °C 1013.1 hPa SSW 11.3 km/h 20.9 km/h 95 % 0 mm 23.00 W/m2
15:33 2.3 °C 1.6 °C 1013.1 hPa SSW 12.9 km/h 24.1 km/h 95 % 0 mm 11.00 W/m2
15:38 2.3 °C 1.6 °C 1013.1 hPa SSW 16.1 km/h 33.8 km/h 95 % 0 mm 12.00 W/m2
15:43 2.3 °C 1.6 °C 1013.4 hPa SSW 6.4 km/h 24.1 km/h 95 % 0 mm 9.00 W/m2
15:48 2.3 °C 1.6 °C 1013.1 hPa SSE 19.3 km/h 20.9 km/h 95 % 0 mm 14.00 W/m2
15:53 2.3 °C 1.6 °C 1013.1 hPa SSW 12.9 km/h 16.1 km/h 95 % 0 mm 28.00 W/m2
15:58 2.2 °C 1.5 °C 1013.1 hPa South 27.4 km/h 27.4 km/h 95 % 0 mm 19.00 W/m2
16:03 2.2 °C 1.5 °C 1013.1 hPa South 25.7 km/h 25.7 km/h 95 % 0 mm 25.00 W/m2
16:08 2.2 °C 1.4 °C 1013.1 hPa South 3.2 km/h 20.9 km/h 95 % 0 mm 19.00 W/m2
16:13 2.2 °C 1.4 °C 1013.1 hPa South 16.1 km/h 20.9 km/h 95 % 0 mm 14.00 W/m2
16:18 2.1 °C 1.2 °C 1013.1 hPa Calm   1.6 km/h 94 % 0 mm 12.00 W/m2
16:23 2.1 °C 1.2 °C 1013.1 hPa South 8 km/h 17.7 km/h 94 % 0 mm 9.00 W/m2
16:28 2 °C 1.1 °C 1013.1 hPa South 12.9 km/h 12.9 km/h 94 % 0 mm 7.00 W/m2
16:33 2 °C 1.1 °C 1013.1 hPa SSE 8 km/h 17.7 km/h 94 % 0 mm 9.00 W/m2
16:38 2 °C 1.1 °C 1012.8 hPa South 8 km/h 16.1 km/h 94 % 0 mm 5.00 W/m2
16:43 2 °C 1.1 °C 1013.1 hPa SSE 11.3 km/h 20.9 km/h 94 % 0 mm 0.00 W/m2
16:48 2 °C 1.1 °C 1013.1 hPa SSE 11.3 km/h 25.7 km/h 94 % 0 mm 0.00 W/m2
16:53 2 °C 1.1 °C 1012.8 hPa South 9.7 km/h 17.7 km/h 94 % 0 mm 0.00 W/m2
16:58 2 °C 1.1 °C 1012.8 hPa SSE 8 km/h 20.9 km/h 94 % 0 mm 0.00 W/m2
17:03 2 °C 1.1 °C 1012.8 hPa South 6.4 km/h 16.1 km/h 94 % 0 mm 0.00 W/m2
17:08 2 °C 1.1 °C 1012.8 hPa SSE 16.1 km/h 17.7 km/h 94 % 0 mm 0.00 W/m2
17:13 2 °C 1.1 °C 1013.1 hPa SSE 16.1 km/h 20.9 km/h 94 % 0 mm 0.00 W/m2
17:18 1.9 °C 1.1 °C 1013.1 hPa SSE 11.3 km/h 22.5 km/h 94 % 0 mm 0.00 W/m2
17:24 1.9 °C 1.1 °C 1013.1 hPa SSE 3.2 km/h 11.3 km/h 94 % 0 mm 0.00 W/m2
17:29 2 °C 1.1 °C 1013.1 hPa SW 9.7 km/h 20.9 km/h 94 % 0 mm 0.00 W/m2
17:33 1.9 °C 1.1 °C 1013.4 hPa South 4.8 km/h 19.3 km/h 94 % 0 mm 0.00 W/m2
17:39 1.9 °C 1.1 °C 1013.1 hPa SW 14.5 km/h 41.8 km/h 94 % 0 mm 0.00 W/m2
17:44 1.9 °C 1.1 °C 1013.4 hPa SSW 8 km/h 24.1 km/h 94 % 0 mm 0.00 W/m2
17:49 1.9 °C 1.1 °C 1013.4 hPa SSW 19.3 km/h 25.7 km/h 94 % 0 mm 0.00 W/m2
17:54 1.9 °C 1.1 °C 1013.4 hPa SSW 20.9 km/h 30.6 km/h 94 % 0 mm 0.00 W/m2
17:59 1.9 °C 1.1 °C 1013.4 hPa SSE 25.7 km/h 35.4 km/h 94 % 0 mm 0.00 W/m2
18:04 1.9 °C 1 °C 1013.4 hPa SSW 1.6 km/h 27.4 km/h 94 % 0 mm 0.00 W/m2
18:09 1.9 °C 1.1 °C 1013.4 hPa SW 17.7 km/h 38.6 km/h 94 % 0 mm 0.00 W/m2
18:14 1.9 °C 1.1 °C 1013.4 hPa South 19.3 km/h 33.8 km/h 94 % 0 mm 0.00 W/m2
18:19 1.9 °C 1.1 °C 1013.4 hPa WSW 29 km/h 29 km/h 94 % 0 mm 0.00 W/m2
18:24 1.9 °C 1.1 °C 1013.4 hPa South 11.3 km/h 24.1 km/h 94 % 0 mm 0.00 W/m2
18:29 1.9 °C 1.1 °C 1013.4 hPa SSW 17.7 km/h 29 km/h 94 % 0 mm 0.00 W/m2
18:34 2 °C 1.1 °C 1013.4 hPa South 17.7 km/h 20.9 km/h 94 % 0 mm 0.00 W/m2
18:39 2 °C 1.1 °C 1013.4 hPa SW 11.3 km/h 30.6 km/h 94 % 0 mm 0.00 W/m2
18:44 2 °C 1.1 °C 1013.4 hPa SSW 17.7 km/h 32.2 km/h 94 % 0 mm 0.00 W/m2
18:49 2 °C 1.1 °C 1013.4 hPa South 12.9 km/h 24.1 km/h 94 % 0 mm 0.00 W/m2
18:54 2.1 °C 1.2 °C 1013.4 hPa SSW 14.5 km/h 24.1 km/h 94 % 0 mm 0.00 W/m2
18:59 2.1 °C 1.2 °C 1013.4 hPa South 24.1 km/h 29 km/h 94 % 0 mm 0.00 W/m2
19:04 2.1 °C 1.2 °C 1013.4 hPa South 12.9 km/h 19.3 km/h 94 % 0 mm 0.00 W/m2
19:09 2.1 °C 1.2 °C 1013.4 hPa South 17.7 km/h 30.6 km/h 94 % 0 mm 0.00 W/m2
19:14 2.1 °C 1.2 °C 1013.4 hPa South 20.9 km/h 25.7 km/h 94 % 0 mm 0.00 W/m2
19:19 2.1 °C 1.2 °C 1013.4 hPa SW 22.5 km/h 29 km/h 94 % 0 mm 0.00 W/m2
19:24 2.1 °C 1.2 °C 1013.8 hPa SSE 14.5 km/h 24.1 km/h 94 % 0 mm 0.00 W/m2
19:29 2.1 °C 1.2 °C 1013.4 hPa South 24.1 km/h 24.1 km/h 94 % 0 mm 0.00 W/m2
19:34 2.1 °C 1.2 °C 1013.8 hPa SSW 9.7 km/h 29 km/h 94 % 0 mm 0.00 W/m2
19:39 2.1 °C 1.2 °C 1013.8 hPa SSW 14.5 km/h 22.5 km/h 94 % 0 mm 0.00 W/m2
19:44 2.1 °C 1.2 °C 1013.8 hPa SSE 17.7 km/h 22.5 km/h 94 % 0 mm 0.00 W/m2
19:49 2.1 °C 1.2 °C 1013.8 hPa SSW 3.2 km/h 22.5 km/h 94 % 0 mm 0.00 W/m2
19:54 2.1 °C 1.2 °C 1013.4 hPa SSE 20.9 km/h 33.8 km/h 94 % 0 mm 0.00 W/m2
19:59 2.1 °C 1.2 °C 1013.4 hPa South 27.4 km/h 32.2 km/h 94 % 0 mm 0.00 W/m2
20:04 2.1 °C 1.2 °C 1013.4 hPa South 6.4 km/h 30.6 km/h 94 % 0 mm 0.00 W/m2
20:09 2.1 °C 1.2 °C 1013.8 hPa SSW 12.9 km/h 30.6 km/h 94 % 0 mm 0.00 W/m2
20:14 2.2 °C 1.3 °C 1014.1 hPa South 12.9 km/h 33.8 km/h 94 % 0 mm 0.00 W/m2
20:19 2.2 °C 1.3 °C 1014.1 hPa ESE 14.5 km/h 37 km/h 94 % 0 mm 0.00 W/m2
20:24 2.1 °C 1.2 °C 1014.1 hPa SSW 12.9 km/h 27.4 km/h 94 % 0 mm 0.00 W/m2
20:29 2.1 °C 1.2 °C 1014.4 hPa South 12.9 km/h 33.8 km/h 94 % 0 mm 0.00 W/m2
20:34 2.1 °C 1.1 °C 1014.4 hPa South 19.3 km/h 35.4 km/h 93 % 0 mm 0.00 W/m2
20:39 2.1 °C 1.1 °C 1014.4 hPa SSW 22.5 km/h 32.2 km/h 93 % 0 mm 0.00 W/m2
20:44 2.1 °C 1.1 °C 1014.4 hPa South 25.7 km/h 29 km/h 93 % 0 mm 0.00 W/m2
20:49 2.1 °C 1.1 °C 1014.4 hPa SW 9.7 km/h 22.5 km/h 93 % 0 mm 0.00 W/m2
20:54 2 °C 1 °C 1014.4 hPa SSE 8 km/h 32.2 km/h 93 % 0 mm 0.00 W/m2
20:59 2 °C 1 °C 1014.4 hPa SSW 6.4 km/h 30.6 km/h 93 % 0 mm 0.00 W/m2
21:04 1.9 °C 0.9 °C 1014.4 hPa West 19.3 km/h 38.6 km/h 93 % 0 mm 0.00 W/m2
21:09 1.9 °C 0.9 °C 1014.4 hPa SSW 17.7 km/h 32.2 km/h 93 % 0 mm 0.00 W/m2
21:14 1.9 °C 0.9 °C 1014.4 hPa SSW 20.9 km/h 38.6 km/h 93 % 0 mm 0.00 W/m2
21:19 1.9 °C 0.9 °C 1014.4 hPa SSE 30.6 km/h 37 km/h 93 % 0 mm 0.00 W/m2
21:24 1.8 °C 0.8 °C 1014.4 hPa SW 8 km/h 30.6 km/h 93 % 0 mm 0.00 W/m2
21:29 1.8 °C 0.8 °C 1014.8 hPa South 14.5 km/h 29 km/h 93 % 0 mm 0.00 W/m2
21:34 1.9 °C 0.9 °C 1014.8 hPa WSW 16.1 km/h 35.4 km/h 93 % 0 mm 0.00 W/m2
21:39 1.9 °C 0.9 °C 1015.1 hPa SSW 11.3 km/h 24.1 km/h 93 % 0 mm 0.00 W/m2
21:44 1.9 °C 1.1 °C 1015.1 hPa SSE 24.1 km/h 32.2 km/h 94 % 0 mm 0.00 W/m2
21:49 1.9 °C 1.1 °C 1015.1 hPa SW 16.1 km/h 27.4 km/h 94 % 0 mm 0.00 W/m2
21:54 1.9 °C 1.1 °C 1015.1 hPa SSW 8 km/h 27.4 km/h 94 % 0 mm 0.00 W/m2
21:59 1.9 °C 1.1 °C 1015.5 hPa SSW 17.7 km/h 29 km/h 94 % 0 mm 0.00 W/m2
22:04 1.9 °C 1.1 °C 1015.1 hPa SW 24.1 km/h 24.1 km/h 94 % 0 mm 0.00 W/m2
22:09 1.9 °C 1.1 °C 1015.1 hPa SSW 22.5 km/h 33.8 km/h 94 % 0 mm 0.00 W/m2
22:14 1.9 °C 1 °C 1015.1 hPa South 6.4 km/h 22.5 km/h 94 % 0 mm 0.00 W/m2
22:19 1.8 °C 1 °C 1015.5 hPa SSW 6.4 km/h 25.7 km/h 94 % 0 mm 0.00 W/m2
22:24 1.8 °C 0.8 °C 1015.5 hPa SSW 8 km/h 25.7 km/h 93 % 0 mm 0.00 W/m2
22:29 1.8 °C 0.8 °C 1015.5 hPa SW 17.7 km/h 19.3 km/h 93 % 0 mm 0.00 W/m2
22:34 1.7 °C 0.7 °C 1015.5 hPa SSW 6.4 km/h 27.4 km/h 93 % 0 mm 0.00 W/m2
22:39 1.7 °C 0.7 °C 1015.5 hPa SW 8 km/h 22.5 km/h 93 % 0 mm 0.00 W/m2
22:44 1.6 °C 0.6 °C 1015.5 hPa WSW 6.4 km/h 22.5 km/h 93 % 0 mm 0.00 W/m2
22:49 1.5 °C 0.5 °C 1015.5 hPa Calm   27.4 km/h 93 % 0 mm 0.00 W/m2
22:54 1.4 °C 0.4 °C 1015.8 hPa SSW 19.3 km/h 24.1 km/h 93 % 0 mm 0.00 W/m2
23:00 1.3 °C 0.3 °C 1015.5 hPa SSW 9.7 km/h 29 km/h 93 % 0 mm 0.00 W/m2
23:05 1.3 °C 0.3 °C 1015.8 hPa SW 17.7 km/h 24.1 km/h 93 % 0 mm 0.00 W/m2
23:10 1.3 °C 0.4 °C 1015.5 hPa SSW 9.7 km/h 22.5 km/h 94 % 0 mm 0.00 W/m2
23:15 1.3 °C 0.4 °C 1015.5 hPa SW 24.1 km/h 24.1 km/h 94 % 0 mm 0.00 W/m2
23:20 1.2 °C 0.2 °C 1015.8 hPa SSW 9.7 km/h 19.3 km/h 93 % 0 mm 0.00 W/m2
23:25 1.1 °C 0.1 °C 1015.5 hPa SSW 22.5 km/h 22.5 km/h 93 % 0 mm 0.00 W/m2
23:30 1.1 °C 0.1 °C 1015.5 hPa SSW 9.7 km/h 19.3 km/h 93 % 0 mm 0.00 W/m2
23:35 0.9 °C 0.1 °C 1015.5 hPa SSW 12.9 km/h 25.7 km/h 94 % 0 mm 0.00 W/m2
23:40 0.9 °C 0.1 °C 1015.5 hPa SW 11.3 km/h 19.3 km/h 94 % 0 mm 0.00 W/m2
23:45 0.8 °C 0 °C 1015.5 hPa SW 8 km/h 20.9 km/h 94 % 0 mm 0.00 W/m2
23:50 0.8 °C -0.1 °C 1015.5 hPa Calm   24.1 km/h 94 % 0 mm 0.00 W/m2
23:55 0.8 °C -0.1 °C 1015.5 hPa South 8 km/h 17.7 km/h 94 % 0 mm 0.00 W/m2
Juneau County Weather
Compliments of Weather Underground - 4.5 mb
 WU-history PHP script courtesy of   Juneau County Weather.
powered by Cumulus v1.9.3 (1059)
Ambient Weather VWS v14.00
Top Contact Website Map Copyright © 2007 - 2018 Foresthillweather.com Never base important decisions on this or any weather information obtained from the Internet